sensor_id;sensor_type;location;lat;lon;timestamp;P1;durP1;ratioP1;P2;durP2;ratioP2
11827;SDS011;5971;49.646;8.568;2023-07-22T00:00:58;3.92;;;2.75;;
11827;SDS011;5971;49.646;8.568;2023-07-22T00:03:59;4.35;;;3.25;;
11827;SDS011;5971;49.646;8.568;2023-07-22T00:07:00;4.15;;;2.90;;
11827;SDS011;5971;49.646;8.568;2023-07-22T00:10:02;5.80;;;3.42;;
11827;SDS011;5971;49.646;8.568;2023-07-22T00:13:03;4.63;;;3.22;;
11827;SDS011;5971;49.646;8.568;2023-07-22T00:16:05;4.05;;;2.50;;
11827;SDS011;5971;49.646;8.568;2023-07-22T00:19:06;3.83;;;2.72;;
11827;SDS011;5971;49.646;8.568;2023-07-22T00:22:08;4.97;;;2.88;;
11827;SDS011;5971;49.646;8.568;2023-07-22T00:25:10;3.95;;;2.88;;
11827;SDS011;5971;49.646;8.568;2023-07-22T00:28:12;4.25;;;2.55;;
11827;SDS011;5971;49.646;8.568;2023-07-22T00:31:13;3.88;;;2.53;;
11827;SDS011;5971;49.646;8.568;2023-07-22T00:34:15;3.83;;;2.63;;
11827;SDS011;5971;49.646;8.568;2023-07-22T00:37:16;3.90;;;2.63;;
11827;SDS011;5971;49.646;8.568;2023-07-22T00:40:18;3.92;;;2.65;;
11827;SDS011;5971;49.646;8.568;2023-07-22T00:43:19;6.60;;;3.05;;
11827;SDS011;5971;49.646;8.568;2023-07-22T00:46:21;3.55;;;2.53;;
11827;SDS011;5971;49.646;8.568;2023-07-22T00:49:22;4.47;;;2.72;;
11827;SDS011;5971;49.646;8.568;2023-07-22T00:52:24;3.85;;;2.60;;
11827;SDS011;5971;49.646;8.568;2023-07-22T00:55:26;4.43;;;3.00;;
11827;SDS011;5971;49.646;8.568;2023-07-22T00:58:28;4.03;;;2.80;;
11827;SDS011;5971;49.646;8.568;2023-07-22T01:01:30;3.95;;;2.78;;
11827;SDS011;5971;49.646;8.568;2023-07-22T01:04:32;7.35;;;3.05;;
11827;SDS011;5971;49.646;8.568;2023-07-22T01:07:34;4.70;;;3.03;;
11827;SDS011;5971;49.646;8.568;2023-07-22T01:10:35;4.35;;;3.15;;
11827;SDS011;5971;49.646;8.568;2023-07-22T01:13:37;4.63;;;3.25;;
11827;SDS011;5971;49.646;8.568;2023-07-22T01:16:38;5.95;;;3.05;;
11827;SDS011;5971;49.646;8.568;2023-07-22T01:19:40;4.82;;;2.83;;
11827;SDS011;5971;49.646;8.568;2023-07-22T01:22:42;5.07;;;3.40;;
11827;SDS011;5971;49.646;8.568;2023-07-22T01:25:44;5.38;;;3.22;;
11827;SDS011;5971;49.646;8.568;2023-07-22T01:28:45;5.22;;;3.17;;
11827;SDS011;5971;49.646;8.568;2023-07-22T01:31:47;5.00;;;3.20;;
11827;SDS011;5971;49.646;8.568;2023-07-22T01:34:49;6.03;;;3.70;;
11827;SDS011;5971;49.646;8.568;2023-07-22T01:37:51;5.07;;;3.22;;
11827;SDS011;5971;49.646;8.568;2023-07-22T01:40:53;5.10;;;3.92;;
11827;SDS011;5971;49.646;8.568;2023-07-22T01:43:54;5.30;;;3.92;;
11827;SDS011;5971;49.646;8.568;2023-07-22T01:46:55;5.43;;;3.72;;
11827;SDS011;5971;49.646;8.568;2023-07-22T01:49:57;8.32;;;3.80;;
11827;SDS011;5971;49.646;8.568;2023-07-22T01:52:58;5.43;;;3.40;;
11827;SDS011;5971;49.646;8.568;2023-07-22T01:55:59;5.05;;;3.33;;
11827;SDS011;5971;49.646;8.568;2023-07-22T01:59:01;5.38;;;3.75;;
11827;SDS011;5971;49.646;8.568;2023-07-22T02:02:02;5.88;;;4.05;;
11827;SDS011;5971;49.646;8.568;2023-07-22T02:05:04;5.32;;;3.85;;
11827;SDS011;5971;49.646;8.568;2023-07-22T02:08:05;4.95;;;3.72;;
11827;SDS011;5971;49.646;8.568;2023-07-22T02:11:07;5.40;;;3.78;;
11827;SDS011;5971;49.646;8.568;2023-07-22T02:14:10;5.65;;;3.53;;
11827;SDS011;5971;49.646;8.568;2023-07-22T02:17:11;4.18;;;2.92;;
11827;SDS011;5971;49.646;8.568;2023-07-22T02:20:12;6.22;;;3.50;;
11827;SDS011;5971;49.646;8.568;2023-07-22T02:23:14;4.43;;;3.22;;
11827;SDS011;5971;49.646;8.568;2023-07-22T02:26:15;5.32;;;4.00;;
11827;SDS011;5971;49.646;8.568;2023-07-22T02:29:16;4.93;;;3.70;;
11827;SDS011;5971;49.646;8.568;2023-07-22T02:32:19;6.00;;;3.65;;
11827;SDS011;5971;49.646;8.568;2023-07-22T02:35:21;5.57;;;3.90;;
11827;SDS011;5971;49.646;8.568;2023-07-22T02:38:22;5.93;;;3.60;;
11827;SDS011;5971;49.646;8.568;2023-07-22T02:41:23;5.43;;;3.78;;
11827;SDS011;5971;49.646;8.568;2023-07-22T02:44:25;6.93;;;4.30;;
11827;SDS011;5971;49.646;8.568;2023-07-22T02:47:26;5.45;;;3.72;;
11827;SDS011;5971;49.646;8.568;2023-07-22T02:50:28;6.20;;;3.88;;
11827;SDS011;5971;49.646;8.568;2023-07-22T02:53:29;6.30;;;3.50;;
11827;SDS011;5971;49.646;8.568;2023-07-22T02:56:30;4.85;;;3.72;;
11827;SDS011;5971;49.646;8.568;2023-07-22T02:59:32;4.82;;;3.70;;
11827;SDS011;5971;49.646;8.568;2023-07-22T03:02:35;5.30;;;3.70;;
11827;SDS011;5971;49.646;8.568;2023-07-22T03:05:36;4.80;;;3.33;;
11827;SDS011;5971;49.646;8.568;2023-07-22T03:08:38;4.97;;;4.05;;
11827;SDS011;5971;49.646;8.568;2023-07-22T03:11:39;6.97;;;3.45;;
11827;SDS011;5971;49.646;8.568;2023-07-22T03:14:40;4.82;;;3.38;;
11827;SDS011;5971;49.646;8.568;2023-07-22T03:17:42;6.05;;;3.63;;
11827;SDS011;5971;49.646;8.568;2023-07-22T03:20:43;5.75;;;3.65;;
11827;SDS011;5971;49.646;8.568;2023-07-22T03:23:45;5.60;;;3.80;;
11827;SDS011;5971;49.646;8.568;2023-07-22T03:26:46;6.15;;;3.97;;
11827;SDS011;5971;49.646;8.568;2023-07-22T03:29:47;5.82;;;4.03;;
11827;SDS011;5971;49.646;8.568;2023-07-22T03:32:49;6.35;;;4.03;;
11827;SDS011;5971;49.646;8.568;2023-07-22T03:35:51;5.18;;;3.80;;
11827;SDS011;5971;49.646;8.568;2023-07-22T03:38:53;6.50;;;3.80;;
11827;SDS011;5971;49.646;8.568;2023-07-22T03:41:54;6.55;;;4.20;;
11827;SDS011;5971;49.646;8.568;2023-07-22T03:44:55;6.18;;;4.50;;
11827;SDS011;5971;49.646;8.568;2023-07-22T03:47:57;8.02;;;4.60;;
11827;SDS011;5971;49.646;8.568;2023-07-22T03:50:59;8.13;;;4.50;;
11827;SDS011;5971;49.646;8.568;2023-07-22T03:57:18;6.10;;;4.50;;
11827;SDS011;5971;49.646;8.568;2023-07-22T04:00:20;7.53;;;4.63;;
11827;SDS011;5971;49.646;8.568;2023-07-22T04:03:21;6.53;;;4.07;;
11827;SDS011;5971;49.646;8.568;2023-07-22T04:06:22;5.90;;;4.07;;
11827;SDS011;5971;49.646;8.568;2023-07-22T04:09:26;5.28;;;3.80;;
11827;SDS011;5971;49.646;8.568;2023-07-22T04:12:27;6.85;;;4.13;;
11827;SDS011;5971;49.646;8.568;2023-07-22T04:15:30;6.60;;;3.97;;
11827;SDS011;5971;49.646;8.568;2023-07-22T04:18:31;6.00;;;3.83;;
11827;SDS011;5971;49.646;8.568;2023-07-22T04:21:35;5.78;;;3.85;;
11827;SDS011;5971;49.646;8.568;2023-07-22T04:24:37;6.78;;;4.05;;
11827;SDS011;5971;49.646;8.568;2023-07-22T04:27:38;6.35;;;4.60;;
11827;SDS011;5971;49.646;8.568;2023-07-22T04:30:40;7.07;;;4.15;;
11827;SDS011;5971;49.646;8.568;2023-07-22T04:33:41;5.93;;;3.80;;
11827;SDS011;5971;49.646;8.568;2023-07-22T04:36:43;6.53;;;4.03;;
11827;SDS011;5971;49.646;8.568;2023-07-22T04:39:50;5.03;;;3.72;;
11827;SDS011;5971;49.646;8.568;2023-07-22T04:42:51;5.13;;;4.00;;
11827;SDS011;5971;49.646;8.568;2023-07-22T04:45:53;5.65;;;3.80;;
11827;SDS011;5971;49.646;8.568;2023-07-22T04:48:57;6.15;;;3.92;;
11827;SDS011;5971;49.646;8.568;2023-07-22T04:52:02;5.80;;;3.72;;
11827;SDS011;5971;49.646;8.568;2023-07-22T04:55:04;6.15;;;3.67;;
11827;SDS011;5971;49.646;8.568;2023-07-22T04:58:09;6.93;;;4.03;;
11827;SDS011;5971;49.646;8.568;2023-07-22T05:01:12;4.93;;;3.83;;
11827;SDS011;5971;49.646;8.568;2023-07-22T05:04:13;6.50;;;4.30;;
11827;SDS011;5971;49.646;8.568;2023-07-22T05:07:15;5.32;;;4.10;;
11827;SDS011;5971;49.646;8.568;2023-07-22T05:10:16;7.70;;;4.25;;
11827;SDS011;5971;49.646;8.568;2023-07-22T05:13:17;5.95;;;4.13;;
11827;SDS011;5971;49.646;8.568;2023-07-22T05:16:19;5.30;;;3.80;;
11827;SDS011;5971;49.646;8.568;2023-07-22T05:19:22;5.40;;;3.63;;
11827;SDS011;5971;49.646;8.568;2023-07-22T05:22:23;6.00;;;3.92;;
11827;SDS011;5971;49.646;8.568;2023-07-22T05:25:25;5.68;;;3.75;;
11827;SDS011;5971;49.646;8.568;2023-07-22T05:28:26;5.97;;;3.92;;
11827;SDS011;5971;49.646;8.568;2023-07-22T05:31:28;6.50;;;3.78;;
11827;SDS011;5971;49.646;8.568;2023-07-22T05:34:29;6.28;;;3.88;;
11827;SDS011;5971;49.646;8.568;2023-07-22T05:37:31;5.30;;;3.72;;
11827;SDS011;5971;49.646;8.568;2023-07-22T05:40:33;6.05;;;3.90;;
11827;SDS011;5971;49.646;8.568;2023-07-22T05:43:34;5.60;;;3.58;;
11827;SDS011;5971;49.646;8.568;2023-07-22T05:46:36;6.25;;;3.83;;
11827;SDS011;5971;49.646;8.568;2023-07-22T05:49:38;5.22;;;3.65;;
11827;SDS011;5971;49.646;8.568;2023-07-22T05:52:39;6.00;;;4.00;;
11827;SDS011;5971;49.646;8.568;2023-07-22T05:55:43;5.03;;;3.15;;
11827;SDS011;5971;49.646;8.568;2023-07-22T05:58:44;5.45;;;3.47;;
11827;SDS011;5971;49.646;8.568;2023-07-22T06:01:46;5.72;;;3.33;;
11827;SDS011;5971;49.646;8.568;2023-07-22T06:04:50;5.50;;;3.60;;
11827;SDS011;5971;49.646;8.568;2023-07-22T06:07:51;4.88;;;3.42;;
11827;SDS011;5971;49.646;8.568;2023-07-22T06:10:53;5.70;;;3.42;;
11827;SDS011;5971;49.646;8.568;2023-07-22T06:13:54;5.75;;;3.42;;
11827;SDS011;5971;49.646;8.568;2023-07-22T06:16:55;4.72;;;3.08;;
11827;SDS011;5971;49.646;8.568;2023-07-22T06:19:57;4.22;;;2.92;;
11827;SDS011;5971;49.646;8.568;2023-07-22T06:22:58;4.00;;;2.80;;
11827;SDS011;5971;49.646;8.568;2023-07-22T06:26:03;5.30;;;3.10;;
11827;SDS011;5971;49.646;8.568;2023-07-22T06:29:05;5.88;;;2.90;;
11827;SDS011;5971;49.646;8.568;2023-07-22T06:32:07;4.75;;;3.15;;
11827;SDS011;5971;49.646;8.568;2023-07-22T06:35:09;4.45;;;2.90;;
11827;SDS011;5971;49.646;8.568;2023-07-22T06:38:10;5.07;;;3.25;;
11827;SDS011;5971;49.646;8.568;2023-07-22T06:41:12;4.82;;;3.00;;
11827;SDS011;5971;49.646;8.568;2023-07-22T06:44:13;4.05;;;2.90;;
11827;SDS011;5971;49.646;8.568;2023-07-22T06:47:14;4.75;;;3.35;;
11827;SDS011;5971;49.646;8.568;2023-07-22T06:50:16;6.82;;;3.00;;
11827;SDS011;5971;49.646;8.568;2023-07-22T06:53:17;5.50;;;3.05;;
11827;SDS011;5971;49.646;8.568;2023-07-22T06:56:18;5.03;;;3.00;;
11827;SDS011;5971;49.646;8.568;2023-07-22T06:59:20;5.43;;;2.63;;
11827;SDS011;5971;49.646;8.568;2023-07-22T07:02:26;5.05;;;2.90;;
11827;SDS011;5971;49.646;8.568;2023-07-22T07:05:27;4.45;;;3.05;;
11827;SDS011;5971;49.646;8.568;2023-07-22T07:08:30;4.18;;;2.60;;
11827;SDS011;5971;49.646;8.568;2023-07-22T07:11:31;4.32;;;2.72;;
11827;SDS011;5971;49.646;8.568;2023-07-22T07:14:33;4.55;;;2.90;;
11827;SDS011;5971;49.646;8.568;2023-07-22T07:17:34;4.28;;;2.35;;
11827;SDS011;5971;49.646;8.568;2023-07-22T07:20:36;5.43;;;3.33;;
11827;SDS011;5971;49.646;8.568;2023-07-22T07:23:37;6.47;;;2.95;;
11827;SDS011;5971;49.646;8.568;2023-07-22T07:26:38;4.80;;;2.70;;
11827;SDS011;5971;49.646;8.568;2023-07-22T07:29:40;4.80;;;2.83;;
11827;SDS011;5971;49.646;8.568;2023-07-22T07:32:54;4.85;;;3.15;;
11827;SDS011;5971;49.646;8.568;2023-07-22T07:35:56;6.00;;;3.10;;
11827;SDS011;5971;49.646;8.568;2023-07-22T07:38:57;5.60;;;2.90;;
11827;SDS011;5971;49.646;8.568;2023-07-22T07:41:59;4.70;;;2.58;;
11827;SDS011;5971;49.646;8.568;2023-07-22T07:45:00;5.35;;;2.92;;
11827;SDS011;5971;49.646;8.568;2023-07-22T07:48:01;4.25;;;2.67;;
11827;SDS011;5971;49.646;8.568;2023-07-22T07:51:03;4.18;;;2.75;;
11827;SDS011;5971;49.646;8.568;2023-07-22T07:54:04;5.07;;;2.42;;
11827;SDS011;5971;49.646;8.568;2023-07-22T08:00:09;4.55;;;2.45;;
11827;SDS011;5971;49.646;8.568;2023-07-22T08:03:11;4.35;;;2.72;;
11827;SDS011;5971;49.646;8.568;2023-07-22T08:06:12;4.50;;;2.90;;
11827;SDS011;5971;49.646;8.568;2023-07-22T08:09:14;4.32;;;2.45;;
11827;SDS011;5971;49.646;8.568;2023-07-22T08:12:20;4.78;;;2.60;;
11827;SDS011;5971;49.646;8.568;2023-07-22T08:15:21;4.55;;;2.83;;
11827;SDS011;5971;49.646;8.568;2023-07-22T08:18:23;4.03;;;2.60;;
11827;SDS011;5971;49.646;8.568;2023-07-22T08:21:25;3.83;;;2.47;;
11827;SDS011;5971;49.646;8.568;2023-07-22T08:24:26;4.75;;;2.80;;
11827;SDS011;5971;49.646;8.568;2023-07-22T08:27:28;4.78;;;2.22;;
11827;SDS011;5971;49.646;8.568;2023-07-22T08:30:30;5.10;;;2.63;;
11827;SDS011;5971;49.646;8.568;2023-07-22T08:33:31;5.32;;;2.40;;
11827;SDS011;5971;49.646;8.568;2023-07-22T08:36:42;3.70;;;2.42;;
11827;SDS011;5971;49.646;8.568;2023-07-22T08:39:43;5.03;;;2.53;;
11827;SDS011;5971;49.646;8.568;2023-07-22T08:42:44;4.60;;;2.53;;
11827;SDS011;5971;49.646;8.568;2023-07-22T08:45:47;4.80;;;1.98;;
11827;SDS011;5971;49.646;8.568;2023-07-22T08:48:49;3.17;;;2.25;;
11827;SDS011;5971;49.646;8.568;2023-07-22T08:51:54;3.53;;;1.90;;
11827;SDS011;5971;49.646;8.568;2023-07-22T08:54:56;4.45;;;2.13;;
11827;SDS011;5971;49.646;8.568;2023-07-22T08:57:58;4.30;;;2.58;;
11827;SDS011;5971;49.646;8.568;2023-07-22T09:00:59;4.35;;;2.42;;
11827;SDS011;5971;49.646;8.568;2023-07-22T09:04:01;6.97;;;2.58;;
11827;SDS011;5971;49.646;8.568;2023-07-22T09:07:03;5.18;;;2.80;;
11827;SDS011;5971;49.646;8.568;2023-07-22T09:10:06;4.38;;;2.13;;
11827;SDS011;5971;49.646;8.568;2023-07-22T09:13:08;5.78;;;2.15;;
11827;SDS011;5971;49.646;8.568;2023-07-22T09:16:09;4.45;;;2.20;;
11827;SDS011;5971;49.646;8.568;2023-07-22T09:19:11;4.05;;;2.13;;
11827;SDS011;5971;49.646;8.568;2023-07-22T09:22:12;3.70;;;1.85;;
11827;SDS011;5971;49.646;8.568;2023-07-22T09:25:24;4.75;;;2.00;;
11827;SDS011;5971;49.646;8.568;2023-07-22T09:28:25;3.25;;;2.00;;
11827;SDS011;5971;49.646;8.568;2023-07-22T09:31:27;4.35;;;2.08;;
11827;SDS011;5971;49.646;8.568;2023-07-22T09:34:29;3.55;;;1.80;;
11827;SDS011;5971;49.646;8.568;2023-07-22T09:37:35;3.35;;;1.95;;
11827;SDS011;5971;49.646;8.568;2023-07-22T09:40:38;4.18;;;2.00;;
11827;SDS011;5971;49.646;8.568;2023-07-22T09:46:42;4.65;;;1.92;;
11827;SDS011;5971;49.646;8.568;2023-07-22T09:49:47;3.25;;;2.00;;
11827;SDS011;5971;49.646;8.568;2023-07-22T09:52:54;4.57;;;2.03;;
11827;SDS011;5971;49.646;8.568;2023-07-22T09:55:55;8.98;;;2.70;;
11827;SDS011;5971;49.646;8.568;2023-07-22T09:59:04;3.63;;;2.10;;
11827;SDS011;5971;49.646;8.568;2023-07-22T10:02:07;4.50;;;2.30;;
11827;SDS011;5971;49.646;8.568;2023-07-22T10:05:11;4.25;;;1.90;;
11827;SDS011;5971;49.646;8.568;2023-07-22T10:08:13;4.25;;;2.30;;
11827;SDS011;5971;49.646;8.568;2023-07-22T10:11:15;3.97;;;1.98;;
11827;SDS011;5971;49.646;8.568;2023-07-22T10:14:17;4.00;;;2.03;;
11827;SDS011;5971;49.646;8.568;2023-07-22T10:17:18;3.22;;;1.80;;
11827;SDS011;5971;49.646;8.568;2023-07-22T10:20:20;4.43;;;2.42;;
11827;SDS011;5971;49.646;8.568;2023-07-22T10:23:23;4.03;;;2.05;;
11827;SDS011;5971;49.646;8.568;2023-07-22T10:26:26;3.67;;;2.28;;
11827;SDS011;5971;49.646;8.568;2023-07-22T10:29:47;3.08;;;2.03;;
11827;SDS011;5971;49.646;8.568;2023-07-22T10:32:51;3.85;;;2.10;;
11827;SDS011;5971;49.646;8.568;2023-07-22T10:36:06;3.90;;;2.50;;
11827;SDS011;5971;49.646;8.568;2023-07-22T10:39:08;4.88;;;2.47;;
11827;SDS011;5971;49.646;8.568;2023-07-22T10:42:09;3.83;;;2.78;;
11827;SDS011;5971;49.646;8.568;2023-07-22T10:45:28;3.88;;;2.42;;
11827;SDS011;5971;49.646;8.568;2023-07-22T10:48:34;4.65;;;2.17;;
11827;SDS011;5971;49.646;8.568;2023-07-22T10:51:38;3.20;;;1.80;;
11827;SDS011;5971;49.646;8.568;2023-07-22T10:54:39;3.80;;;2.92;;
11827;SDS011;5971;49.646;8.568;2023-07-22T10:57:49;4.35;;;2.65;;
11827;SDS011;5971;49.646;8.568;2023-07-22T11:00:51;3.75;;;2.40;;
11827;SDS011;5971;49.646;8.568;2023-07-22T11:04:09;5.20;;;2.33;;
11827;SDS011;5971;49.646;8.568;2023-07-22T11:07:14;4.25;;;2.25;;
11827;SDS011;5971;49.646;8.568;2023-07-22T11:10:16;3.80;;;2.22;;
11827;SDS011;5971;49.646;8.568;2023-07-22T11:13:27;4.50;;;2.80;;
11827;SDS011;5971;49.646;8.568;2023-07-22T11:16:33;4.40;;;2.75;;
11827;SDS011;5971;49.646;8.568;2023-07-22T11:19:35;5.13;;;2.72;;
11827;SDS011;5971;49.646;8.568;2023-07-22T11:22:40;5.78;;;2.92;;
11827;SDS011;5971;49.646;8.568;2023-07-22T11:25:48;4.97;;;2.28;;
11827;SDS011;5971;49.646;8.568;2023-07-22T11:28:49;4.88;;;2.78;;
11827;SDS011;5971;49.646;8.568;2023-07-22T11:31:54;3.88;;;2.28;;
11827;SDS011;5971;49.646;8.568;2023-07-22T11:34:55;3.70;;;2.35;;
11827;SDS011;5971;49.646;8.568;2023-07-22T11:38:00;4.20;;;2.03;;
11827;SDS011;5971;49.646;8.568;2023-07-22T11:41:02;4.60;;;2.30;;
11827;SDS011;5971;49.646;8.568;2023-07-22T11:44:04;3.72;;;2.40;;
11827;SDS011;5971;49.646;8.568;2023-07-22T11:47:15;5.43;;;2.90;;
11827;SDS011;5971;49.646;8.568;2023-07-22T11:50:17;3.53;;;2.20;;
11827;SDS011;5971;49.646;8.568;2023-07-22T11:53:18;4.38;;;2.20;;
11827;SDS011;5971;49.646;8.568;2023-07-22T11:56:20;4.47;;;2.22;;
11827;SDS011;5971;49.646;8.568;2023-07-22T11:59:32;3.88;;;2.13;;
11827;SDS011;5971;49.646;8.568;2023-07-22T12:02:35;5.57;;;2.08;;
11827;SDS011;5971;49.646;8.568;2023-07-22T12:05:37;4.30;;;2.13;;
11827;SDS011;5971;49.646;8.568;2023-07-22T12:08:45;3.28;;;1.95;;
11827;SDS011;5971;49.646;8.568;2023-07-22T12:11:47;3.33;;;2.00;;
11827;SDS011;5971;49.646;8.568;2023-07-22T12:14:50;3.45;;;2.20;;
11827;SDS011;5971;49.646;8.568;2023-07-22T12:17:55;3.60;;;2.03;;
11827;SDS011;5971;49.646;8.568;2023-07-22T12:20:57;4.15;;;1.95;;
11827;SDS011;5971;49.646;8.568;2023-07-22T12:23:58;4.03;;;2.20;;
11827;SDS011;5971;49.646;8.568;2023-07-22T12:27:00;2.92;;;1.83;;
11827;SDS011;5971;49.646;8.568;2023-07-22T12:30:01;3.55;;;2.45;;
11827;SDS011;5971;49.646;8.568;2023-07-22T12:33:04;3.72;;;1.92;;
11827;SDS011;5971;49.646;8.568;2023-07-22T12:36:05;3.10;;;1.85;;
11827;SDS011;5971;49.646;8.568;2023-07-22T12:39:07;3.33;;;1.90;;
11827;SDS011;5971;49.646;8.568;2023-07-22T12:42:08;5.13;;;1.90;;
11827;SDS011;5971;49.646;8.568;2023-07-22T12:45:10;3.03;;;1.95;;
11827;SDS011;5971;49.646;8.568;2023-07-22T12:48:11;3.40;;;1.98;;
11827;SDS011;5971;49.646;8.568;2023-07-22T12:51:13;3.13;;;2.00;;
11827;SDS011;5971;49.646;8.568;2023-07-22T12:54:14;4.72;;;2.13;;
11827;SDS011;5971;49.646;8.568;2023-07-22T12:57:16;4.63;;;2.13;;
11827;SDS011;5971;49.646;8.568;2023-07-22T13:00:17;4.68;;;2.30;;
11827;SDS011;5971;49.646;8.568;2023-07-22T13:03:19;3.72;;;1.80;;
11827;SDS011;5971;49.646;8.568;2023-07-22T13:06:20;3.92;;;2.00;;
11827;SDS011;5971;49.646;8.568;2023-07-22T13:09:22;3.55;;;2.08;;
11827;SDS011;5971;49.646;8.568;2023-07-22T13:12:23;4.38;;;2.20;;
11827;SDS011;5971;49.646;8.568;2023-07-22T13:15:24;3.33;;;2.00;;
11827;SDS011;5971;49.646;8.568;2023-07-22T13:18:26;3.85;;;2.25;;
11827;SDS011;5971;49.646;8.568;2023-07-22T13:21:27;3.35;;;1.90;;
11827;SDS011;5971;49.646;8.568;2023-07-22T13:24:29;4.50;;;1.90;;
11827;SDS011;5971;49.646;8.568;2023-07-22T13:27:30;3.28;;;1.75;;
11827;SDS011;5971;49.646;8.568;2023-07-22T13:30:32;4.57;;;2.30;;
11827;SDS011;5971;49.646;8.568;2023-07-22T13:33:33;3.53;;;2.03;;
11827;SDS011;5971;49.646;8.568;2023-07-22T13:36:35;3.40;;;2.08;;
11827;SDS011;5971;49.646;8.568;2023-07-22T13:39:37;3.97;;;2.50;;
11827;SDS011;5971;49.646;8.568;2023-07-22T13:42:38;3.25;;;2.03;;
11827;SDS011;5971;49.646;8.568;2023-07-22T13:45:40;3.25;;;2.00;;
11827;SDS011;5971;49.646;8.568;2023-07-22T13:48:41;3.33;;;1.90;;
11827;SDS011;5971;49.646;8.568;2023-07-22T13:51:43;3.47;;;1.92;;
11827;SDS011;5971;49.646;8.568;2023-07-22T13:54:44;3.92;;;1.98;;
11827;SDS011;5971;49.646;8.568;2023-07-22T13:57:46;3.72;;;2.20;;
11827;SDS011;5971;49.646;8.568;2023-07-22T14:00:48;4.28;;;2.63;;
11827;SDS011;5971;49.646;8.568;2023-07-22T14:03:49;4.45;;;2.25;;
11827;SDS011;5971;49.646;8.568;2023-07-22T14:06:51;4.00;;;2.47;;
11827;SDS011;5971;49.646;8.568;2023-07-22T14:09:52;3.08;;;1.98;;
11827;SDS011;5971;49.646;8.568;2023-07-22T14:12:54;4.20;;;2.15;;
11827;SDS011;5971;49.646;8.568;2023-07-22T14:15:55;3.60;;;2.20;;
11827;SDS011;5971;49.646;8.568;2023-07-22T14:19:09;4.05;;;2.03;;
11827;SDS011;5971;49.646;8.568;2023-07-22T14:22:10;4.43;;;2.00;;
11827;SDS011;5971;49.646;8.568;2023-07-22T14:25:11;3.88;;;2.30;;
11827;SDS011;5971;49.646;8.568;2023-07-22T14:28:13;4.18;;;2.15;;
11827;SDS011;5971;49.646;8.568;2023-07-22T14:31:14;3.97;;;2.13;;
11827;SDS011;5971;49.646;8.568;2023-07-22T14:34:15;3.78;;;2.28;;
11827;SDS011;5971;49.646;8.568;2023-07-22T14:37:17;3.90;;;2.22;;
11827;SDS011;5971;49.646;8.568;2023-07-22T14:40:18;3.55;;;2.22;;
11827;SDS011;5971;49.646;8.568;2023-07-22T14:43:20;3.65;;;2.22;;
11827;SDS011;5971;49.646;8.568;2023-07-22T14:46:23;4.13;;;2.55;;
11827;SDS011;5971;49.646;8.568;2023-07-22T14:49:24;3.90;;;2.55;;
11827;SDS011;5971;49.646;8.568;2023-07-22T14:52:25;4.35;;;2.10;;
11827;SDS011;5971;49.646;8.568;2023-07-22T14:55:27;3.90;;;2.22;;
11827;SDS011;5971;49.646;8.568;2023-07-22T14:58:28;3.88;;;2.40;;
11827;SDS011;5971;49.646;8.568;2023-07-22T15:01:37;5.00;;;2.45;;
11827;SDS011;5971;49.646;8.568;2023-07-22T15:04:38;4.43;;;2.30;;
11827;SDS011;5971;49.646;8.568;2023-07-22T15:07:39;4.70;;;2.33;;
11827;SDS011;5971;49.646;8.568;2023-07-22T15:10:41;5.30;;;2.40;;
11827;SDS011;5971;49.646;8.568;2023-07-22T15:13:42;4.53;;;2.40;;
11827;SDS011;5971;49.646;8.568;2023-07-22T15:16:43;4.53;;;2.42;;
11827;SDS011;5971;49.646;8.568;2023-07-22T15:19:45;4.78;;;2.50;;
11827;SDS011;5971;49.646;8.568;2023-07-22T15:22:46;4.25;;;2.40;;
11827;SDS011;5971;49.646;8.568;2023-07-22T15:25:48;3.97;;;2.10;;
11827;SDS011;5971;49.646;8.568;2023-07-22T15:28:49;4.63;;;2.40;;
11827;SDS011;5971;49.646;8.568;2023-07-22T15:31:50;4.43;;;2.33;;
11827;SDS011;5971;49.646;8.568;2023-07-22T15:34:52;6.32;;;2.42;;
11827;SDS011;5971;49.646;8.568;2023-07-22T15:37:53;5.15;;;2.50;;
11827;SDS011;5971;49.646;8.568;2023-07-22T15:40:55;4.80;;;2.55;;
11827;SDS011;5971;49.646;8.568;2023-07-22T15:43:57;4.32;;;2.58;;
11827;SDS011;5971;49.646;8.568;2023-07-22T15:46:58;5.50;;;2.50;;
11827;SDS011;5971;49.646;8.568;2023-07-22T15:49:59;3.90;;;2.42;;
11827;SDS011;5971;49.646;8.568;2023-07-22T15:53:01;4.43;;;2.22;;
11827;SDS011;5971;49.646;8.568;2023-07-22T15:56:02;4.00;;;2.53;;
11827;SDS011;5971;49.646;8.568;2023-07-22T15:59:04;5.13;;;2.42;;
11827;SDS011;5971;49.646;8.568;2023-07-22T16:02:05;4.53;;;2.58;;
11827;SDS011;5971;49.646;8.568;2023-07-22T16:05:07;4.15;;;2.22;;
11827;SDS011;5971;49.646;8.568;2023-07-22T16:08:21;5.07;;;2.70;;
11827;SDS011;5971;49.646;8.568;2023-07-22T16:11:22;5.40;;;2.80;;
11827;SDS011;5971;49.646;8.568;2023-07-22T16:14:23;4.70;;;2.42;;
11827;SDS011;5971;49.646;8.568;2023-07-22T16:17:25;4.70;;;2.53;;
11827;SDS011;5971;49.646;8.568;2023-07-22T16:20:26;4.60;;;2.38;;
11827;SDS011;5971;49.646;8.568;2023-07-22T16:23:27;4.20;;;2.17;;
11827;SDS011;5971;49.646;8.568;2023-07-22T16:26:29;6.15;;;2.53;;
11827;SDS011;5971;49.646;8.568;2023-07-22T16:29:30;4.22;;;2.40;;
11827;SDS011;5971;49.646;8.568;2023-07-22T16:32:31;4.20;;;2.38;;
11827;SDS011;5971;49.646;8.568;2023-07-22T16:35:33;5.30;;;2.67;;
11827;SDS011;5971;49.646;8.568;2023-07-22T16:38:34;5.28;;;3.00;;
11827;SDS011;5971;49.646;8.568;2023-07-22T16:41:36;5.15;;;2.50;;
11827;SDS011;5971;49.646;8.568;2023-07-22T16:44:37;5.30;;;2.60;;
11827;SDS011;5971;49.646;8.568;2023-07-22T16:47:38;5.10;;;2.45;;
11827;SDS011;5971;49.646;8.568;2023-07-22T16:50:40;5.28;;;2.53;;
11827;SDS011;5971;49.646;8.568;2023-07-22T16:53:41;4.93;;;2.33;;
11827;SDS011;5971;49.646;8.568;2023-07-22T16:56:42;5.13;;;2.53;;
11827;SDS011;5971;49.646;8.568;2023-07-22T16:59:44;4.30;;;2.45;;
11827;SDS011;5971;49.646;8.568;2023-07-22T17:02:45;4.60;;;2.42;;
11827;SDS011;5971;49.646;8.568;2023-07-22T17:05:47;4.43;;;2.50;;
11827;SDS011;5971;49.646;8.568;2023-07-22T17:08:49;4.20;;;2.58;;
11827;SDS011;5971;49.646;8.568;2023-07-22T17:11:51;4.05;;;2.30;;
11827;SDS011;5971;49.646;8.568;2023-07-22T17:14:52;4.45;;;3.00;;
11827;SDS011;5971;49.646;8.568;2023-07-22T17:17:54;4.63;;;2.25;;
11827;SDS011;5971;49.646;8.568;2023-07-22T17:20:55;3.92;;;2.55;;
11827;SDS011;5971;49.646;8.568;2023-07-22T17:23:56;4.28;;;2.17;;
11827;SDS011;5971;49.646;8.568;2023-07-22T17:26:58;4.18;;;2.30;;
11827;SDS011;5971;49.646;8.568;2023-07-22T17:29:59;3.83;;;2.30;;
11827;SDS011;5971;49.646;8.568;2023-07-22T17:33:01;4.15;;;2.30;;
11827;SDS011;5971;49.646;8.568;2023-07-22T17:36:02;4.20;;;2.05;;
11827;SDS011;5971;49.646;8.568;2023-07-22T17:39:04;4.85;;;2.28;;
11827;SDS011;5971;49.646;8.568;2023-07-22T17:42:05;4.63;;;2.13;;
11827;SDS011;5971;49.646;8.568;2023-07-22T17:45:07;4.30;;;2.42;;
11827;SDS011;5971;49.646;8.568;2023-07-22T17:48:08;4.63;;;2.53;;
11827;SDS011;5971;49.646;8.568;2023-07-22T17:51:09;3.60;;;1.92;;
11827;SDS011;5971;49.646;8.568;2023-07-22T17:54:11;5.30;;;2.50;;
11827;SDS011;5971;49.646;8.568;2023-07-22T17:57:12;4.85;;;2.20;;
11827;SDS011;5971;49.646;8.568;2023-07-22T18:00:14;5.13;;;1.92;;
11827;SDS011;5971;49.646;8.568;2023-07-22T18:03:15;4.03;;;2.33;;
11827;SDS011;5971;49.646;8.568;2023-07-22T18:06:17;4.32;;;2.63;;
11827;SDS011;5971;49.646;8.568;2023-07-22T18:09:18;5.07;;;2.40;;
11827;SDS011;5971;49.646;8.568;2023-07-22T18:12:20;3.67;;;1.95;;
11827;SDS011;5971;49.646;8.568;2023-07-22T18:15:21;3.40;;;1.92;;
11827;SDS011;5971;49.646;8.568;2023-07-22T18:18:23;3.33;;;2.00;;
11827;SDS011;5971;49.646;8.568;2023-07-22T18:21:24;4.53;;;2.60;;
11827;SDS011;5971;49.646;8.568;2023-07-22T18:24:26;4.25;;;2.20;;
11827;SDS011;5971;49.646;8.568;2023-07-22T18:27:28;4.90;;;2.40;;
11827;SDS011;5971;49.646;8.568;2023-07-22T18:30:29;4.05;;;2.20;;
11827;SDS011;5971;49.646;8.568;2023-07-22T18:33:30;3.72;;;1.95;;
11827;SDS011;5971;49.646;8.568;2023-07-22T18:36:32;4.32;;;2.03;;
11827;SDS011;5971;49.646;8.568;2023-07-22T18:39:33;3.83;;;2.17;;
11827;SDS011;5971;49.646;8.568;2023-07-22T18:42:35;3.70;;;2.03;;